Whitefield, NH

12:33 PM EST on March 01, 2015 (GMT -0500)
Kilkenny View Rd | Change Station
CLOSE
Current Station
Personal Weather Station
Location: Jefferson, NH
Elevation: 1093 ft
Nearby Weather Stations

Elev 1093 ft 44.44 °N, 71.51 °W | Updated 7 seconds ago

Overcast
Overcast
26.2 °F
Feels Like 26 °F
N
0.0
Wind Variable Wind from WNW
Gusts 0.0 mph

Today
High -- | Low -- °F
--% Chance of Precip.
Yesterday
High -- | Low -- °F
Precip. -- in
6:24 AM 5:34 PM
Waxing Gibbous, 86% visible
Pressure 30.49 in
Visibility 10.0 miles
Clouds Overcast 7000 ft
Windchill 26 °F
Dew Point 6 °F
Humidity 41%
Rainfall 0.00 in
Snow Depth Not available.
UV 2 out of 12
Pollen .40 out of 12
Air Quality Not available.
Flu Activity Not available.
METAR KHIE 011652Z AUTO 00000KT 10SM OVC070 M06/M16 A3040 RMK AO2 SLP324 T10561156

More Conditions Fewer Conditions

Pressure 30.49 in
Visibility 10.0 miles
Clouds Overcast 7000 ft
Windchill 26 °F
Dew Point 6 °F
Humidity 41%
Rainfall 0.00 in
Snow Depth Not available.
UV 2 out of 12
Pollen .40 out of 12
Air Quality Not available.
Flu Activity Not available.
METAR KHIE 011652Z AUTO 00000KT 10SM OVC070 M06/M16 A3040 RMK AO2 SLP324 T10561156

More Conditions Fewer Conditions

10-Day Weather Forecast

Almanac

Astronomy

Mar. 01, 2015 Rise Set
Actual Time
Civil Twilight
Nautical Twilight
Astronomical Twilight
Moon
Length of Visible Light
Length of Day
Tomorrow will be .
, % of the Moon is Illuminated

Today's Extremes

State Highs State Lows

Community

WunderPhotos

Upload Photos

1,801,478 photos uploaded!

WunderBlogs® & News

Nearby

Air Quality

  Air Quality AQ Index Pollutant
Not available.

Snow Depth

Station Depth Elevation

Earthquake Activity

City Distance Mag. Time & Date
Minimum magnitude displayed is 2.5.

Coastal Water Temperatures

Place Temperature

Nearby Weather Stations